Main page
METAR-TAF:

METAR-TAF

Airports :

Okeechobee County Airport

Okeechobee, Florida, United States

latitude: 27-15-58N, longitude: 080-51-04W, elevation: 33 ft

Current weather observation

The report was made 23 minutes ago, at 12:55 UTC
Wind 8 mph from the South/Southeast
Temperature 81°F
Humidity 89%
Pressure 30.07 in. Hg
Visibility: 10 miles
Broken clouds at a height of 700 ft
Overcast at a height of 1200 ft

METAR: KOBE 281255Z AUTO 15007KT 10SM BKN007 OVC012 27/25 A3007 RMK AO2

Time: 09:18 (13:18 UTC)


TAF: missing

Weather observations and forecasts of more than 4000 airports (METAR and TAF reports).

The available stations are represented by yellow and red dots on the map.

Hover mouse over dot to see the name of the station.

Then click to see weather observations and forecasts.

To change the map : click on the green buttons with a black cross to zoom in, on the green button with a dash to zoom out, or on the green arrows for adjacent maps.


METAR-TAF: